sensor_id;sensor_type;location;lat;lon;timestamp;temperature;humidity
51655;DHT22;37732;53.106;7.030;2023-12-04T00:00:26;0.20;99.90
51655;DHT22;37732;53.106;7.030;2023-12-04T00:02:52;0.20;99.90
51655;DHT22;37732;53.106;7.030;2023-12-04T00:05:18;0.20;99.90
51655;DHT22;37732;53.106;7.030;2023-12-04T00:07:43;0.20;99.90
51655;DHT22;37732;53.106;7.030;2023-12-04T00:10:09;0.20;99.90
51655;DHT22;37732;53.106;7.030;2023-12-04T00:12:35;0.20;99.90
51655;DHT22;37732;53.106;7.030;2023-12-04T00:15:00;0.20;99.90
51655;DHT22;37732;53.106;7.030;2023-12-04T00:17:26;0.30;99.90
51655;DHT22;37732;53.106;7.030;2023-12-04T00:19:52;0.20;99.90
51655;DHT22;37732;53.106;7.030;2023-12-04T00:22:17;0.20;99.90
51655;DHT22;37732;53.106;7.030;2023-12-04T00:24:43;0.20;99.90
51655;DHT22;37732;53.106;7.030;2023-12-04T00:27:09;0.20;99.90
51655;DHT22;37732;53.106;7.030;2023-12-04T00:29:34;0.20;99.90
51655;DHT22;37732;53.106;7.030;2023-12-04T00:32:00;0.20;99.90
51655;DHT22;37732;53.106;7.030;2023-12-04T00:34:26;0.30;99.90
51655;DHT22;37732;53.106;7.030;2023-12-04T00:36:51;0.40;99.90
51655;DHT22;37732;53.106;7.030;2023-12-04T00:39:17;0.20;99.90
51655;DHT22;37732;53.106;7.030;2023-12-04T00:41:43;0.90;99.90
51655;DHT22;37732;53.106;7.030;2023-12-04T00:44:08;0.20;99.90
51655;DHT22;37732;53.106;7.030;2023-12-04T00:46:34;0.20;99.90
51655;DHT22;37732;53.106;7.030;2023-12-04T00:49:00;0.20;99.90
51655;DHT22;37732;53.106;7.030;2023-12-04T00:51:25;0.40;99.90
51655;DHT22;37732;53.106;7.030;2023-12-04T00:53:53;0.80;99.90
51655;DHT22;37732;53.106;7.030;2023-12-04T00:56:19;0.20;99.90
51655;DHT22;37732;53.106;7.030;2023-12-04T00:58:46;0.20;99.90
51655;DHT22;37732;53.106;7.030;2023-12-04T01:01:11;0.20;99.90
51655;DHT22;37732;53.106;7.030;2023-12-04T01:03:38;0.20;99.90
51655;DHT22;37732;53.106;7.030;2023-12-04T01:06:03;0.10;99.90
51655;DHT22;37732;53.106;7.030;2023-12-04T01:08:29;0.20;99.90
51655;DHT22;37732;53.106;7.030;2023-12-04T01:10:55;0.50;99.90
51655;DHT22;37732;53.106;7.030;2023-12-04T01:13:22;0.20;99.90
51655;DHT22;37732;53.106;7.030;2023-12-04T01:15:49;0.20;99.90
51655;DHT22;37732;53.106;7.030;2023-12-04T01:18:20;1.30;99.90
51655;DHT22;37732;53.106;7.030;2023-12-04T01:20:46;0.20;99.90
51655;DHT22;37732;53.106;7.030;2023-12-04T01:23:12;0.10;99.90
51655;DHT22;37732;53.106;7.030;2023-12-04T01:25:37;0.10;99.90
51655;DHT22;37732;53.106;7.030;2023-12-04T01:28:03;0.10;99.90
51655;DHT22;37732;53.106;7.030;2023-12-04T01:30:29;0.10;99.90
51655;DHT22;37732;53.106;7.030;2023-12-04T01:32:54;0.20;99.90
51655;DHT22;37732;53.106;7.030;2023-12-04T01:35:20;0.10;99.90
51655;DHT22;37732;53.106;7.030;2023-12-04T01:37:45;0.20;99.90
51655;DHT22;37732;53.106;7.030;2023-12-04T01:40:11;0.10;99.90
51655;DHT22;37732;53.106;7.030;2023-12-04T01:42:37;0.20;99.90
51655;DHT22;37732;53.106;7.030;2023-12-04T01:45:03;1.10;99.90
51655;DHT22;37732;53.106;7.030;2023-12-04T01:47:29;0.10;99.90
51655;DHT22;37732;53.106;7.030;2023-12-04T01:49:54;0.20;99.90
51655;DHT22;37732;53.106;7.030;2023-12-04T01:52:20;0.40;99.90
51655;DHT22;37732;53.106;7.030;2023-12-04T01:54:46;0.20;99.90
51655;DHT22;37732;53.106;7.030;2023-12-04T01:57:11;0.50;99.90
51655;DHT22;37732;53.106;7.030;2023-12-04T01:59:37;0.20;99.90
51655;DHT22;37732;53.106;7.030;2023-12-04T02:02:04;1.10;99.90
51655;DHT22;37732;53.106;7.030;2023-12-04T02:04:31;0.10;99.90
51655;DHT22;37732;53.106;7.030;2023-12-04T02:06:57;0.20;99.90
51655;DHT22;37732;53.106;7.030;2023-12-04T02:09:23;0.20;99.90
51655;DHT22;37732;53.106;7.030;2023-12-04T02:11:49;1.10;99.90
51655;DHT22;37732;53.106;7.030;2023-12-04T02:14:14;0.10;99.90
51655;DHT22;37732;53.106;7.030;2023-12-04T02:16:41;0.20;99.90
51655;DHT22;37732;53.106;7.030;2023-12-04T02:19:08;1.00;99.90
51655;DHT22;37732;53.106;7.030;2023-12-04T02:21:35;0.20;99.90
51655;DHT22;37732;53.106;7.030;2023-12-04T02:24:00;0.20;99.90
51655;DHT22;37732;53.106;7.030;2023-12-04T02:26:39;1.60;99.90
51655;DHT22;37732;53.106;7.030;2023-12-04T02:29:09;0.50;99.90
51655;DHT22;37732;53.106;7.030;2023-12-04T02:31:38;0.20;99.90
51655;DHT22;37732;53.106;7.030;2023-12-04T02:34:06;0.20;99.90
51655;DHT22;37732;53.106;7.030;2023-12-04T02:36:34;1.60;99.90
51655;DHT22;37732;53.106;7.030;2023-12-04T02:39:00;0.20;99.90
51655;DHT22;37732;53.106;7.030;2023-12-04T02:41:27;1.60;99.90
51655;DHT22;37732;53.106;7.030;2023-12-04T02:43:53;0.20;99.90
51655;DHT22;37732;53.106;7.030;2023-12-04T02:46:19;1.80;99.90
51655;DHT22;37732;53.106;7.030;2023-12-04T02:48:44;1.00;99.90
51655;DHT22;37732;53.106;7.030;2023-12-04T02:51:10;1.40;99.90
51655;DHT22;37732;53.106;7.030;2023-12-04T02:53:36;0.40;99.90
51655;DHT22;37732;53.106;7.030;2023-12-04T02:56:02;1.60;99.90
51655;DHT22;37732;53.106;7.030;2023-12-04T02:58:28;0.20;99.90
51655;DHT22;37732;53.106;7.030;2023-12-04T03:00:53;0.80;99.90
51655;DHT22;37732;53.106;7.030;2023-12-04T03:03:19;1.00;99.90
51655;DHT22;37732;53.106;7.030;2023-12-04T03:05:45;1.30;99.90
51655;DHT22;37732;53.106;7.030;2023-12-04T03:08:10;0.80;99.90
51655;DHT22;37732;53.106;7.030;2023-12-04T03:10:36;1.30;99.90
51655;DHT22;37732;53.106;7.030;2023-12-04T03:13:02;0.20;99.90
51655;DHT22;37732;53.106;7.030;2023-12-04T03:15:27;0.20;99.90
51655;DHT22;37732;53.106;7.030;2023-12-04T03:17:55;0.30;99.90
51655;DHT22;37732;53.106;7.030;2023-12-04T03:20:20;0.30;99.90
51655;DHT22;37732;53.106;7.030;2023-12-04T03:22:46;0.20;99.90
51655;DHT22;37732;53.106;7.030;2023-12-04T03:25:15;1.40;99.90
51655;DHT22;37732;53.106;7.030;2023-12-04T03:27:40;0.30;99.90
51655;DHT22;37732;53.106;7.030;2023-12-04T03:30:06;0.40;99.90
51655;DHT22;37732;53.106;7.030;2023-12-04T03:32:32;0.30;99.90
51655;DHT22;37732;53.106;7.030;2023-12-04T03:34:58;1.20;99.90
51655;DHT22;37732;53.106;7.030;2023-12-04T03:37:23;0.30;99.90
51655;DHT22;37732;53.106;7.030;2023-12-04T03:39:50;0.30;99.90
51655;DHT22;37732;53.106;7.030;2023-12-04T03:42:16;0.30;99.90
51655;DHT22;37732;53.106;7.030;2023-12-04T03:44:42;0.30;99.90
51655;DHT22;37732;53.106;7.030;2023-12-04T03:47:07;0.30;99.90
51655;DHT22;37732;53.106;7.030;2023-12-04T03:49:33;0.30;99.90
51655;DHT22;37732;53.106;7.030;2023-12-04T03:51:58;0.50;99.90
51655;DHT22;37732;53.106;7.030;2023-12-04T03:54:24;0.30;99.90
51655;DHT22;37732;53.106;7.030;2023-12-04T03:56:50;1.00;99.90
51655;DHT22;37732;53.106;7.030;2023-12-04T03:59:15;0.30;99.90
51655;DHT22;37732;53.106;7.030;2023-12-04T04:01:41;0.30;99.90
51655;DHT22;37732;53.106;7.030;2023-12-04T04:04:07;1.50;99.90
51655;DHT22;37732;53.106;7.030;2023-12-04T04:06:32;0.30;99.90
51655;DHT22;37732;53.106;7.030;2023-12-04T04:08:58;1.00;99.90
51655;DHT22;37732;53.106;7.030;2023-12-04T04:11:24;0.90;99.90
51655;DHT22;37732;53.106;7.030;2023-12-04T04:13:49;1.30;99.90
51655;DHT22;37732;53.106;7.030;2023-12-04T04:16:16;1.10;99.90
51655;DHT22;37732;53.106;7.030;2023-12-04T04:18:42;0.40;99.90
51655;DHT22;37732;53.106;7.030;2023-12-04T04:21:09;0.40;99.90
51655;DHT22;37732;53.106;7.030;2023-12-04T04:23:35;0.60;99.90
51655;DHT22;37732;53.106;7.030;2023-12-04T04:26:01;0.80;99.90
51655;DHT22;37732;53.106;7.030;2023-12-04T04:28:28;0.40;99.90
51655;DHT22;37732;53.106;7.030;2023-12-04T04:30:53;0.40;99.90
51655;DHT22;37732;53.106;7.030;2023-12-04T04:33:21;0.40;99.90
51655;DHT22;37732;53.106;7.030;2023-12-04T04:35:47;0.60;99.90
51655;DHT22;37732;53.106;7.030;2023-12-04T04:38:13;0.90;99.90
51655;DHT22;37732;53.106;7.030;2023-12-04T04:40:38;1.50;99.90
51655;DHT22;37732;53.106;7.030;2023-12-04T04:43:08;1.90;99.90
51655;DHT22;37732;53.106;7.030;2023-12-04T04:45:33;0.90;99.90
51655;DHT22;37732;53.106;7.030;2023-12-04T04:47:59;0.40;99.90
51655;DHT22;37732;53.106;7.030;2023-12-04T04:50:25;1.80;99.90
51655;DHT22;37732;53.106;7.030;2023-12-04T04:52:50;1.40;99.90
51655;DHT22;37732;53.106;7.030;2023-12-04T04:55:16;0.50;99.90
51655;DHT22;37732;53.106;7.030;2023-12-04T04:57:42;0.60;99.90
51655;DHT22;37732;53.106;7.030;2023-12-04T05:00:08;0.40;99.90
51655;DHT22;37732;53.106;7.030;2023-12-04T05:02:34;0.40;99.90
51655;DHT22;37732;53.106;7.030;2023-12-04T05:05:02;0.40;99.90
51655;DHT22;37732;53.106;7.030;2023-12-04T05:07:28;0.40;99.90
51655;DHT22;37732;53.106;7.030;2023-12-04T05:09:54;0.40;99.90
51655;DHT22;37732;53.106;7.030;2023-12-04T05:12:20;0.80;99.90
51655;DHT22;37732;53.106;7.030;2023-12-04T05:14:46;1.80;99.90
51655;DHT22;37732;53.106;7.030;2023-12-04T05:17:13;0.40;99.90
51655;DHT22;37732;53.106;7.030;2023-12-04T05:19:38;0.40;99.90
51655;DHT22;37732;53.106;7.030;2023-12-04T05:22:04;0.70;99.90
51655;DHT22;37732;53.106;7.030;2023-12-04T05:24:33;0.40;99.90
51655;DHT22;37732;53.106;7.030;2023-12-04T05:26:58;0.50;99.90
51655;DHT22;37732;53.106;7.030;2023-12-04T05:29:25;0.40;99.90
51655;DHT22;37732;53.106;7.030;2023-12-04T05:31:51;0.50;99.90
51655;DHT22;37732;53.106;7.030;2023-12-04T05:34:16;1.00;99.90
51655;DHT22;37732;53.106;7.030;2023-12-04T05:36:45;1.70;99.90
51655;DHT22;37732;53.106;7.030;2023-12-04T05:39:11;0.40;99.90
51655;DHT22;37732;53.106;7.030;2023-12-04T05:41:37;-0.50;99.90
51655;DHT22;37732;53.106;7.030;2023-12-04T05:44:03;0.40;99.90
51655;DHT22;37732;53.106;7.030;2023-12-04T05:46:29;0.40;99.90
51655;DHT22;37732;53.106;7.030;2023-12-04T05:48:54;0.40;99.90
51655;DHT22;37732;53.106;7.030;2023-12-04T05:51:20;1.50;99.90
51655;DHT22;37732;53.106;7.030;2023-12-04T05:53:50;1.40;99.90
51655;DHT22;37732;53.106;7.030;2023-12-04T05:56:15;0.40;99.90
51655;DHT22;37732;53.106;7.030;2023-12-04T05:58:41;0.40;99.90
51655;DHT22;37732;53.106;7.030;2023-12-04T06:01:07;0.40;99.90
51655;DHT22;37732;53.106;7.030;2023-12-04T06:03:33;1.10;99.90
51655;DHT22;37732;53.106;7.030;2023-12-04T06:05:59;0.60;99.90
51655;DHT22;37732;53.106;7.030;2023-12-04T06:08:25;0.50;99.90
51655;DHT22;37732;53.106;7.030;2023-12-04T06:10:51;0.90;99.90
51655;DHT22;37732;53.106;7.030;2023-12-04T06:13:16;0.80;99.90
51655;DHT22;37732;53.106;7.030;2023-12-04T06:15:45;0.90;99.90
51655;DHT22;37732;53.106;7.030;2023-12-04T06:18:10;0.50;99.90
51655;DHT22;37732;53.106;7.030;2023-12-04T06:20:36;0.50;99.90
51655;DHT22;37732;53.106;7.030;2023-12-04T06:23:02;0.50;99.90
51655;DHT22;37732;53.106;7.030;2023-12-04T06:25:28;0.50;99.90
51655;DHT22;37732;53.106;7.030;2023-12-04T06:27:54;0.50;99.90
51655;DHT22;37732;53.106;7.030;2023-12-04T06:30:20;0.50;99.90
51655;DHT22;37732;53.106;7.030;2023-12-04T06:32:46;0.50;99.90
51655;DHT22;37732;53.106;7.030;2023-12-04T06:35:12;0.50;99.90
51655;DHT22;37732;53.106;7.030;2023-12-04T06:37:38;0.60;99.90
51655;DHT22;37732;53.106;7.030;2023-12-04T06:40:05;0.60;99.90
51655;DHT22;37732;53.106;7.030;2023-12-04T06:42:35;0.50;99.90
51655;DHT22;37732;53.106;7.030;2023-12-04T06:45:01;0.60;99.90
51655;DHT22;37732;53.106;7.030;2023-12-04T06:47:27;0.60;99.90
51655;DHT22;37732;53.106;7.030;2023-12-04T06:49:54;0.60;99.90
51655;DHT22;37732;53.106;7.030;2023-12-04T06:52:19;0.60;99.90
51655;DHT22;37732;53.106;7.030;2023-12-04T06:54:45;0.40;99.90
51655;DHT22;37732;53.106;7.030;2023-12-04T06:57:11;0.60;99.90
51655;DHT22;37732;53.106;7.030;2023-12-04T06:59:36;0.60;99.90
51655;DHT22;37732;53.106;7.030;2023-12-04T07:02:02;0.60;99.90
51655;DHT22;37732;53.106;7.030;2023-12-04T07:04:28;0.60;99.90
51655;DHT22;37732;53.106;7.030;2023-12-04T07:06:54;1.60;99.90
51655;DHT22;37732;53.106;7.030;2023-12-04T07:09:20;0.60;99.90
51655;DHT22;37732;53.106;7.030;2023-12-04T07:11:46;0.60;99.90
51655;DHT22;37732;53.106;7.030;2023-12-04T07:14:11;0.90;99.90
51655;DHT22;37732;53.106;7.030;2023-12-04T07:16:41;1.10;99.90
51655;DHT22;37732;53.106;7.030;2023-12-04T07:19:08;0.60;99.90
51655;DHT22;37732;53.106;7.030;2023-12-04T07:21:35;0.70;99.90
51655;DHT22;37732;53.106;7.030;2023-12-04T07:24:01;0.60;99.90
51655;DHT22;37732;53.106;7.030;2023-12-04T07:26:27;0.90;99.90
51655;DHT22;37732;53.106;7.030;2023-12-04T07:28:53;0.60;99.90
51655;DHT22;37732;53.106;7.030;2023-12-04T07:31:19;0.90;99.90
51655;DHT22;37732;53.106;7.030;2023-12-04T07:33:45;0.60;99.90
51655;DHT22;37732;53.106;7.030;2023-12-04T07:36:11;0.60;99.90
51655;DHT22;37732;53.106;7.030;2023-12-04T07:38:37;0.60;99.90
51655;DHT22;37732;53.106;7.030;2023-12-04T07:41:02;0.60;99.90
51655;DHT22;37732;53.106;7.030;2023-12-04T07:43:28;0.60;99.90
51655;DHT22;37732;53.106;7.030;2023-12-04T07:45:55;0.60;99.90
51655;DHT22;37732;53.106;7.030;2023-12-04T07:48:21;0.60;99.90
51655;DHT22;37732;53.106;7.030;2023-12-04T07:50:47;0.60;99.90
51655;DHT22;37732;53.106;7.030;2023-12-04T07:53:13;0.60;99.90
51655;DHT22;37732;53.106;7.030;2023-12-04T07:55:39;0.80;99.90
51655;DHT22;37732;53.106;7.030;2023-12-04T07:58:05;0.60;99.90
51655;DHT22;37732;53.106;7.030;2023-12-04T08:00:30;0.60;99.90
51655;DHT22;37732;53.106;7.030;2023-12-04T08:02:56;1.50;99.90
51655;DHT22;37732;53.106;7.030;2023-12-04T08:05:22;0.70;99.90
51655;DHT22;37732;53.106;7.030;2023-12-04T08:07:48;1.20;99.90
51655;DHT22;37732;53.106;7.030;2023-12-04T08:10:13;0.00;99.90
51655;DHT22;37732;53.106;7.030;2023-12-04T08:12:39;0.70;99.90
51655;DHT22;37732;53.106;7.030;2023-12-04T08:15:05;0.90;99.90
51655;DHT22;37732;53.106;7.030;2023-12-04T08:17:31;0.70;99.90
51655;DHT22;37732;53.106;7.030;2023-12-04T08:19:57;0.60;99.90
51655;DHT22;37732;53.106;7.030;2023-12-04T08:22:23;0.70;99.90
51655;DHT22;37732;53.106;7.030;2023-12-04T08:24:48;0.80;99.90
51655;DHT22;37732;53.106;7.030;2023-12-04T08:27:14;0.90;99.90
51655;DHT22;37732;53.106;7.030;2023-12-04T08:29:40;1.40;99.90
51655;DHT22;37732;53.106;7.030;2023-12-04T08:32:06;0.80;99.90
51655;DHT22;37732;53.106;7.030;2023-12-04T08:34:32;1.60;99.90
51655;DHT22;37732;53.106;7.030;2023-12-04T08:36:57;2.40;99.90
51655;DHT22;37732;53.106;7.030;2023-12-04T08:39:23;1.70;99.90
51655;DHT22;37732;53.106;7.030;2023-12-04T08:41:49;0.80;99.90
51655;DHT22;37732;53.106;7.030;2023-12-04T08:44:14;0.80;99.90
51655;DHT22;37732;53.106;7.030;2023-12-04T08:46:41;0.80;99.90
51655;DHT22;37732;53.106;7.030;2023-12-04T08:49:07;0.80;99.90
51655;DHT22;37732;53.106;7.030;2023-12-04T08:51:32;0.80;99.90
51655;DHT22;37732;53.106;7.030;2023-12-04T08:53:58;1.10;99.90
51655;DHT22;37732;53.106;7.030;2023-12-04T08:56:24;0.90;99.90
51655;DHT22;37732;53.106;7.030;2023-12-04T08:58:49;0.90;99.90
51655;DHT22;37732;53.106;7.030;2023-12-04T09:01:18;1.60;99.90
51655;DHT22;37732;53.106;7.030;2023-12-04T09:03:43;0.90;99.90
51655;DHT22;37732;53.106;7.030;2023-12-04T09:06:09;1.00;99.90
51655;DHT22;37732;53.106;7.030;2023-12-04T09:08:35;1.00;99.90
51655;DHT22;37732;53.106;7.030;2023-12-04T09:11:01;1.60;99.90
51655;DHT22;37732;53.106;7.030;2023-12-04T09:13:26;1.00;99.90
51655;DHT22;37732;53.106;7.030;2023-12-04T09:15:52;1.70;99.90
51655;DHT22;37732;53.106;7.030;2023-12-04T09:18:18;1.10;99.90
51655;DHT22;37732;53.106;7.030;2023-12-04T09:20:44;1.90;99.90
51655;DHT22;37732;53.106;7.030;2023-12-04T09:23:09;1.00;99.90
51655;DHT22;37732;53.106;7.030;2023-12-04T09:25:35;1.00;99.90
51655;DHT22;37732;53.106;7.030;2023-12-04T09:28:01;1.40;99.90
51655;DHT22;37732;53.106;7.030;2023-12-04T09:30:27;2.30;99.90
51655;DHT22;37732;53.106;7.030;2023-12-04T09:32:54;1.10;99.90
51655;DHT22;37732;53.106;7.030;2023-12-04T09:35:20;1.10;99.90
51655;DHT22;37732;53.106;7.030;2023-12-04T09:37:45;1.10;99.90
51655;DHT22;37732;53.106;7.030;2023-12-04T09:40:12;1.40;99.90
51655;DHT22;37732;53.106;7.030;2023-12-04T09:42:39;1.20;99.90
51655;DHT22;37732;53.106;7.030;2023-12-04T09:45:06;1.20;99.90
51655;DHT22;37732;53.106;7.030;2023-12-04T09:47:33;1.20;99.90
51655;DHT22;37732;53.106;7.030;2023-12-04T09:50:00;1.30;99.90
51655;DHT22;37732;53.106;7.030;2023-12-04T09:52:27;1.20;99.90
51655;DHT22;37732;53.106;7.030;2023-12-04T09:54:53;1.20;99.90
51655;DHT22;37732;53.106;7.030;2023-12-04T09:57:19;1.10;99.90
51655;DHT22;37732;53.106;7.030;2023-12-04T09:59:47;1.30;99.90
51655;DHT22;37732;53.106;7.030;2023-12-04T10:02:14;1.20;99.90
51655;DHT22;37732;53.106;7.030;2023-12-04T10:04:40;1.60;99.90
51655;DHT22;37732;53.106;7.030;2023-12-04T10:07:07;1.30;99.90
51655;DHT22;37732;53.106;7.030;2023-12-04T10:09:32;1.70;99.90
51655;DHT22;37732;53.106;7.030;2023-12-04T10:11:58;1.40;99.90
51655;DHT22;37732;53.106;7.030;2023-12-04T10:14:24;1.40;99.90
51655;DHT22;37732;53.106;7.030;2023-12-04T10:16:51;1.40;99.90
51655;DHT22;37732;53.106;7.030;2023-12-04T10:19:25;1.80;99.90
51655;DHT22;37732;53.106;7.030;2023-12-04T10:21:51;1.50;99.90
51655;DHT22;37732;53.106;7.030;2023-12-04T10:27:04;1.60;99.90
51655;DHT22;37732;53.106;7.030;2023-12-04T10:29:42;1.50;99.90
51655;DHT22;37732;53.106;7.030;2023-12-04T10:32:08;2.00;99.90
51655;DHT22;37732;53.106;7.030;2023-12-04T10:34:34;1.50;99.90
51655;DHT22;37732;53.106;7.030;2023-12-04T10:36:59;1.60;99.90
51655;DHT22;37732;53.106;7.030;2023-12-04T10:39:25;1.60;99.90
51655;DHT22;37732;53.106;7.030;2023-12-04T10:42:03;1.90;99.90
51655;DHT22;37732;53.106;7.030;2023-12-04T10:44:30;1.60;99.90
51655;DHT22;37732;53.106;7.030;2023-12-04T10:46:59;1.60;99.90
51655;DHT22;37732;53.106;7.030;2023-12-04T10:49:27;1.60;99.90
51655;DHT22;37732;53.106;7.030;2023-12-04T10:51:57;1.70;99.90
51655;DHT22;37732;53.106;7.030;2023-12-04T10:54:27;2.00;99.90
51655;DHT22;37732;53.106;7.030;2023-12-04T10:56:53;1.60;99.90
51655;DHT22;37732;53.106;7.030;2023-12-04T10:59:25;1.90;99.90
51655;DHT22;37732;53.106;7.030;2023-12-04T11:01:53;2.60;99.90
51655;DHT22;37732;53.106;7.030;2023-12-04T11:04:23;1.60;99.90
51655;DHT22;37732;53.106;7.030;2023-12-04T11:06:53;1.60;99.90
51655;DHT22;37732;53.106;7.030;2023-12-04T11:09:21;1.60;99.90
51655;DHT22;37732;53.106;7.030;2023-12-04T11:11:51;2.40;99.90
51655;DHT22;37732;53.106;7.030;2023-12-04T11:14:22;1.60;99.90
51655;DHT22;37732;53.106;7.030;2023-12-04T11:16:51;1.70;99.90
51655;DHT22;37732;53.106;7.030;2023-12-04T11:19:45;1.70;99.90
51655;DHT22;37732;53.106;7.030;2023-12-04T11:22:14;1.80;99.90
51655;DHT22;37732;53.106;7.030;2023-12-04T11:24:41;2.30;99.90
51655;DHT22;37732;53.106;7.030;2023-12-04T11:27:07;2.20;99.90
51655;DHT22;37732;53.106;7.030;2023-12-04T11:29:33;1.70;99.90
51655;DHT22;37732;53.106;7.030;2023-12-04T11:31:59;1.80;99.90
51655;DHT22;37732;53.106;7.030;2023-12-04T11:34:25;1.60;99.90
51655;DHT22;37732;53.106;7.030;2023-12-04T11:36:51;2.50;99.90
51655;DHT22;37732;53.106;7.030;2023-12-04T11:39:18;1.80;99.90
51655;DHT22;37732;53.106;7.030;2023-12-04T11:41:45;1.80;99.90
51655;DHT22;37732;53.106;7.030;2023-12-04T11:44:14;2.40;99.90
51655;DHT22;37732;53.106;7.030;2023-12-04T11:46:55;1.80;99.90
51655;DHT22;37732;53.106;7.030;2023-12-04T11:49:27;1.70;99.90
51655;DHT22;37732;53.106;7.030;2023-12-04T11:52:03;1.70;99.90
51655;DHT22;37732;53.106;7.030;2023-12-04T11:54:37;1.70;99.90
51655;DHT22;37732;53.106;7.030;2023-12-04T11:59:41;1.80;99.90
51655;DHT22;37732;53.106;7.030;2023-12-04T12:02:09;1.70;99.90
51655;DHT22;37732;53.106;7.030;2023-12-04T12:04:35;1.70;99.90
51655;DHT22;37732;53.106;7.030;2023-12-04T12:07:01;1.80;99.90
51655;DHT22;37732;53.106;7.030;2023-12-04T12:09:28;2.00;99.90
51655;DHT22;37732;53.106;7.030;2023-12-04T12:11:54;2.50;99.90
51655;DHT22;37732;53.106;7.030;2023-12-04T12:14:23;2.30;99.90
51655;DHT22;37732;53.106;7.030;2023-12-04T12:16:49;1.80;99.90
51655;DHT22;37732;53.106;7.030;2023-12-04T12:19:14;2.90;99.90
51655;DHT22;37732;53.106;7.030;2023-12-04T12:21:41;1.80;99.90
51655;DHT22;37732;53.106;7.030;2023-12-04T12:24:06;1.80;99.90
51655;DHT22;37732;53.106;7.030;2023-12-04T12:26:33;1.80;99.90
51655;DHT22;37732;53.106;7.030;2023-12-04T12:28:59;1.80;99.90
51655;DHT22;37732;53.106;7.030;2023-12-04T12:31:24;1.90;99.90
51655;DHT22;37732;53.106;7.030;2023-12-04T12:33:50;1.80;99.90
51655;DHT22;37732;53.106;7.030;2023-12-04T12:36:17;2.00;99.90
51655;DHT22;37732;53.106;7.030;2023-12-04T12:38:45;1.90;99.90
51655;DHT22;37732;53.106;7.030;2023-12-04T12:41:18;1.80;99.90
51655;DHT22;37732;53.106;7.030;2023-12-04T12:43:44;1.80;99.90
51655;DHT22;37732;53.106;7.030;2023-12-04T12:46:11;1.80;99.90
51655;DHT22;37732;53.106;7.030;2023-12-04T12:48:37;1.80;99.90
51655;DHT22;37732;53.106;7.030;2023-12-04T12:51:03;1.90;99.90
51655;DHT22;37732;53.106;7.030;2023-12-04T12:53:31;1.90;99.90
51655;DHT22;37732;53.106;7.030;2023-12-04T12:55:59;1.90;99.90
51655;DHT22;37732;53.106;7.030;2023-12-04T12:58:26;1.80;99.90
51655;DHT22;37732;53.106;7.030;2023-12-04T13:00:52;3.00;99.90
51655;DHT22;37732;53.106;7.030;2023-12-04T13:03:18;1.80;99.90
51655;DHT22;37732;53.106;7.030;2023-12-04T13:05:44;1.80;99.90
51655;DHT22;37732;53.106;7.030;2023-12-04T13:08:10;1.90;99.90
51655;DHT22;37732;53.106;7.030;2023-12-04T13:10:41;2.90;99.90
51655;DHT22;37732;53.106;7.030;2023-12-04T13:13:14;1.80;99.90
51655;DHT22;37732;53.106;7.030;2023-12-04T13:15:43;1.80;99.90
51655;DHT22;37732;53.106;7.030;2023-12-04T13:18:09;1.80;99.90
51655;DHT22;37732;53.106;7.030;2023-12-04T13:20:35;2.50;99.90
51655;DHT22;37732;53.106;7.030;2023-12-04T13:23:01;2.40;99.90
51655;DHT22;37732;53.106;7.030;2023-12-04T13:25:27;1.80;99.90
51655;DHT22;37732;53.106;7.030;2023-12-04T13:27:53;1.80;99.90
51655;DHT22;37732;53.106;7.030;2023-12-04T13:30:19;2.30;99.90
51655;DHT22;37732;53.106;7.030;2023-12-04T13:32:45;1.80;99.90
51655;DHT22;37732;53.106;7.030;2023-12-04T13:35:11;1.80;99.90
51655;DHT22;37732;53.106;7.030;2023-12-04T13:37:37;2.00;99.90
51655;DHT22;37732;53.106;7.030;2023-12-04T13:40:05;1.80;99.90
51655;DHT22;37732;53.106;7.030;2023-12-04T13:42:34;1.80;99.90
51655;DHT22;37732;53.106;7.030;2023-12-04T13:45:18;1.70;99.90
51655;DHT22;37732;53.106;7.030;2023-12-04T13:47:47;1.70;99.90
51655;DHT22;37732;53.106;7.030;2023-12-04T13:50:13;1.70;99.90
51655;DHT22;37732;53.106;7.030;2023-12-04T13:52:39;1.70;99.90
51655;DHT22;37732;53.106;7.030;2023-12-04T13:55:06;1.70;99.90
51655;DHT22;37732;53.106;7.030;2023-12-04T13:58:02;1.70;99.90
51655;DHT22;37732;53.106;7.030;2023-12-04T14:00:27;1.70;99.90
51655;DHT22;37732;53.106;7.030;2023-12-04T14:02:53;2.60;99.90
51655;DHT22;37732;53.106;7.030;2023-12-04T14:05:25;1.70;99.90
51655;DHT22;37732;53.106;7.030;2023-12-04T14:07:51;1.70;99.90
51655;DHT22;37732;53.106;7.030;2023-12-04T14:10:17;1.60;99.90
51655;DHT22;37732;53.106;7.030;2023-12-04T14:12:42;1.60;99.90
51655;DHT22;37732;53.106;7.030;2023-12-04T14:15:08;1.60;99.90
51655;DHT22;37732;53.106;7.030;2023-12-04T14:17:34;1.60;99.90
51655;DHT22;37732;53.106;7.030;2023-12-04T14:20:00;1.60;99.90
51655;DHT22;37732;53.106;7.030;2023-12-04T14:22:28;1.60;99.90
51655;DHT22;37732;53.106;7.030;2023-12-04T14:24:54;1.60;99.90
51655;DHT22;37732;53.106;7.030;2023-12-04T14:27:20;2.20;99.90
51655;DHT22;37732;53.106;7.030;2023-12-04T14:29:45;1.60;99.90
51655;DHT22;37732;53.106;7.030;2023-12-04T14:32:11;1.60;99.90
51655;DHT22;37732;53.106;7.030;2023-12-04T14:34:38;1.50;99.90
51655;DHT22;37732;53.106;7.030;2023-12-04T14:37:04;1.50;99.90
51655;DHT22;37732;53.106;7.030;2023-12-04T14:39:29;1.50;99.90
51655;DHT22;37732;53.106;7.030;2023-12-04T14:41:55;1.50;99.90
51655;DHT22;37732;53.106;7.030;2023-12-04T14:44:21;1.90;99.90
51655;DHT22;37732;53.106;7.030;2023-12-04T14:46:46;1.40;99.90
51655;DHT22;37732;53.106;7.030;2023-12-04T14:49:12;2.30;99.90
51655;DHT22;37732;53.106;7.030;2023-12-04T14:51:38;1.40;99.90
51655;DHT22;37732;53.106;7.030;2023-12-04T14:54:04;1.40;99.90
51655;DHT22;37732;53.106;7.030;2023-12-04T14:56:46;1.30;99.90
51655;DHT22;37732;53.106;7.030;2023-12-04T14:59:23;1.80;99.90
51655;DHT22;37732;53.106;7.030;2023-12-04T15:02:12;1.80;99.90
51655;DHT22;37732;53.106;7.030;2023-12-04T15:04:46;1.40;99.90
51655;DHT22;37732;53.106;7.030;2023-12-04T15:07:31;1.40;99.90
51655;DHT22;37732;53.106;7.030;2023-12-04T15:10:21;1.30;99.90
51655;DHT22;37732;53.106;7.030;2023-12-04T15:13:10;1.30;99.90
51655;DHT22;37732;53.106;7.030;2023-12-04T15:15:54;2.50;99.90
51655;DHT22;37732;53.106;7.030;2023-12-04T15:18:29;2.10;99.90
51655;DHT22;37732;53.106;7.030;2023-12-04T15:20:54;1.30;99.90
51655;DHT22;37732;53.106;7.030;2023-12-04T15:23:21;1.60;99.90
51655;DHT22;37732;53.106;7.030;2023-12-04T15:25:46;1.30;99.90
51655;DHT22;37732;53.106;7.030;2023-12-04T15:28:12;1.70;99.90
51655;DHT22;37732;53.106;7.030;2023-12-04T15:30:41;1.30;99.90
51655;DHT22;37732;53.106;7.030;2023-12-04T15:33:07;1.30;99.90
51655;DHT22;37732;53.106;7.030;2023-12-04T15:35:33;1.30;99.90
51655;DHT22;37732;53.106;7.030;2023-12-04T15:37:59;1.20;99.90
51655;DHT22;37732;53.106;7.030;2023-12-04T15:40:25;1.30;99.90
51655;DHT22;37732;53.106;7.030;2023-12-04T15:42:51;1.60;99.90
51655;DHT22;37732;53.106;7.030;2023-12-04T15:45:17;1.20;99.90
51655;DHT22;37732;53.106;7.030;2023-12-04T15:47:42;1.90;99.90